sensor_id;sensor_type;location;lat;lon;timestamp;P1;durP1;ratioP1;P2;durP2;ratioP2
3757;SDS011;1894;51.038;13.692;2023-09-18T00:01:22;5.07;;;4.47;;
3757;SDS011;1894;51.038;13.692;2023-09-18T00:03:49;6.23;;;4.67;;
3757;SDS011;1894;51.038;13.692;2023-09-18T00:06:16;6.20;;;4.70;;
3757;SDS011;1894;51.038;13.692;2023-09-18T00:08:43;4.07;;;3.77;;
3757;SDS011;1894;51.038;13.692;2023-09-18T00:11:11;7.03;;;4.63;;
3757;SDS011;1894;51.038;13.692;2023-09-18T00:13:38;5.77;;;4.83;;
3757;SDS011;1894;51.038;13.692;2023-09-18T00:16:05;5.70;;;5.20;;
3757;SDS011;1894;51.038;13.692;2023-09-18T00:18:32;7.53;;;4.83;;
3757;SDS011;1894;51.038;13.692;2023-09-18T00:21:00;7.80;;;4.80;;
3757;SDS011;1894;51.038;13.692;2023-09-18T00:23:27;7.23;;;5.77;;
3757;SDS011;1894;51.038;13.692;2023-09-18T00:25:54;6.27;;;5.60;;
3757;SDS011;1894;51.038;13.692;2023-09-18T00:28:21;5.50;;;4.77;;
3757;SDS011;1894;51.038;13.692;2023-09-18T00:30:49;11.10;;;6.40;;
3757;SDS011;1894;51.038;13.692;2023-09-18T00:33:17;5.43;;;4.93;;
3757;SDS011;1894;51.038;13.692;2023-09-18T00:35:50;5.30;;;4.80;;
3757;SDS011;1894;51.038;13.692;2023-09-18T00:38:18;5.27;;;4.80;;
3757;SDS011;1894;51.038;13.692;2023-09-18T00:40:47;5.70;;;5.20;;
3757;SDS011;1894;51.038;13.692;2023-09-18T00:43:14;5.03;;;4.63;;
3757;SDS011;1894;51.038;13.692;2023-09-18T00:45:42;9.90;;;5.80;;
3757;SDS011;1894;51.038;13.692;2023-09-18T00:48:12;7.07;;;4.60;;
3757;SDS011;1894;51.038;13.692;2023-09-18T00:50:45;4.87;;;4.33;;
3757;SDS011;1894;51.038;13.692;2023-09-18T00:53:19;5.80;;;4.90;;
3757;SDS011;1894;51.038;13.692;2023-09-18T00:55:49;5.90;;;5.23;;
3757;SDS011;1894;51.038;13.692;2023-09-18T00:58:20;4.77;;;4.37;;
3757;SDS011;1894;51.038;13.692;2023-09-18T01:00:47;5.43;;;4.80;;
3757;SDS011;1894;51.038;13.692;2023-09-18T01:03:18;5.27;;;4.77;;
3757;SDS011;1894;51.038;13.692;2023-09-18T01:05:47;7.67;;;5.80;;
3757;SDS011;1894;51.038;13.692;2023-09-18T01:08:14;10.53;;;6.47;;
3757;SDS011;1894;51.038;13.692;2023-09-18T01:10:53;4.90;;;4.50;;
3757;SDS011;1894;51.038;13.692;2023-09-18T01:13:51;6.93;;;5.90;;
3757;SDS011;1894;51.038;13.692;2023-09-18T01:16:51;6.73;;;6.03;;
3757;SDS011;1894;51.038;13.692;2023-09-18T01:19:39;6.13;;;5.40;;
3757;SDS011;1894;51.038;13.692;2023-09-18T01:22:13;6.20;;;5.60;;
3757;SDS011;1894;51.038;13.692;2023-09-18T01:24:43;7.03;;;5.53;;
3757;SDS011;1894;51.038;13.692;2023-09-18T01:27:14;8.33;;;5.07;;
3757;SDS011;1894;51.038;13.692;2023-09-18T01:29:44;6.07;;;5.47;;
3757;SDS011;1894;51.038;13.692;2023-09-18T01:32:12;6.67;;;5.90;;
3757;SDS011;1894;51.038;13.692;2023-09-18T01:34:41;6.37;;;5.77;;
3757;SDS011;1894;51.038;13.692;2023-09-18T01:37:14;9.50;;;6.57;;
3757;SDS011;1894;51.038;13.692;2023-09-18T01:39:46;6.40;;;5.80;;
3757;SDS011;1894;51.038;13.692;2023-09-18T01:42:16;6.20;;;5.70;;
3757;SDS011;1894;51.038;13.692;2023-09-18T01:44:44;7.23;;;6.53;;
3757;SDS011;1894;51.038;13.692;2023-09-18T01:47:17;6.77;;;5.10;;
3757;SDS011;1894;51.038;13.692;2023-09-18T01:49:47;7.87;;;6.17;;
3757;SDS011;1894;51.038;13.692;2023-09-18T01:52:14;6.30;;;5.40;;
3757;SDS011;1894;51.038;13.692;2023-09-18T01:54:42;7.37;;;6.50;;
3757;SDS011;1894;51.038;13.692;2023-09-18T01:57:10;7.13;;;5.40;;
3757;SDS011;1894;51.038;13.692;2023-09-18T01:59:38;9.10;;;5.67;;
3757;SDS011;1894;51.038;13.692;2023-09-18T02:02:08;6.60;;;6.00;;
3757;SDS011;1894;51.038;13.692;2023-09-18T02:04:42;5.70;;;5.20;;
3757;SDS011;1894;51.038;13.692;2023-09-18T02:07:29;8.80;;;5.83;;
3757;SDS011;1894;51.038;13.692;2023-09-18T02:09:57;10.00;;;6.03;;
3757;SDS011;1894;51.038;13.692;2023-09-18T02:12:24;6.60;;;6.00;;
3757;SDS011;1894;51.038;13.692;2023-09-18T02:14:51;7.00;;;6.40;;
3757;SDS011;1894;51.038;13.692;2023-09-18T02:17:18;6.60;;;6.00;;
3757;SDS011;1894;51.038;13.692;2023-09-18T02:19:47;6.90;;;6.20;;
3757;SDS011;1894;51.038;13.692;2023-09-18T02:22:14;10.33;;;6.80;;
3757;SDS011;1894;51.038;13.692;2023-09-18T02:24:41;7.73;;;6.30;;
3757;SDS011;1894;51.038;13.692;2023-09-18T02:27:08;7.60;;;6.13;;
3757;SDS011;1894;51.038;13.692;2023-09-18T02:29:37;7.03;;;6.33;;
3757;SDS011;1894;51.038;13.692;2023-09-18T02:32:04;9.03;;;7.00;;
3757;SDS011;1894;51.038;13.692;2023-09-18T02:34:31;9.93;;;7.23;;
3757;SDS011;1894;51.038;13.692;2023-09-18T02:37:00;11.93;;;5.80;;
3757;SDS011;1894;51.038;13.692;2023-09-18T02:39:27;6.60;;;5.97;;
3757;SDS011;1894;51.038;13.692;2023-09-18T02:41:54;7.07;;;6.37;;
3757;SDS011;1894;51.038;13.692;2023-09-18T02:44:22;25.17;;;16.00;;
3757;SDS011;1894;51.038;13.692;2023-09-18T02:46:50;8.90;;;7.07;;
3757;SDS011;1894;51.038;13.692;2023-09-18T02:49:17;7.50;;;6.33;;
3757;SDS011;1894;51.038;13.692;2023-09-18T02:51:44;7.73;;;6.40;;
3757;SDS011;1894;51.038;13.692;2023-09-18T02:54:11;6.90;;;6.30;;
3757;SDS011;1894;51.038;13.692;2023-09-18T02:56:38;7.80;;;7.10;;
3757;SDS011;1894;51.038;13.692;2023-09-18T02:59:06;7.63;;;6.90;;
3757;SDS011;1894;51.038;13.692;2023-09-18T03:01:34;10.23;;;6.03;;
3757;SDS011;1894;51.038;13.692;2023-09-18T03:04:01;10.30;;;8.00;;
3757;SDS011;1894;51.038;13.692;2023-09-18T03:06:29;7.83;;;7.03;;
3757;SDS011;1894;51.038;13.692;2023-09-18T03:08:56;8.77;;;7.90;;
3757;SDS011;1894;51.038;13.692;2023-09-18T03:11:24;8.23;;;7.43;;
3757;SDS011;1894;51.038;13.692;2023-09-18T03:13:54;7.40;;;6.80;;
3757;SDS011;1894;51.038;13.692;2023-09-18T03:16:22;7.90;;;7.20;;
3757;SDS011;1894;51.038;13.692;2023-09-18T03:18:49;7.43;;;6.73;;
3757;SDS011;1894;51.038;13.692;2023-09-18T03:21:17;8.37;;;7.57;;
3757;SDS011;1894;51.038;13.692;2023-09-18T03:23:44;10.73;;;6.77;;
3757;SDS011;1894;51.038;13.692;2023-09-18T03:26:11;7.57;;;6.87;;
3757;SDS011;1894;51.038;13.692;2023-09-18T03:28:38;8.53;;;7.73;;
3757;SDS011;1894;51.038;13.692;2023-09-18T03:31:06;10.17;;;9.07;;
3757;SDS011;1894;51.038;13.692;2023-09-18T03:33:34;9.57;;;8.27;;
3757;SDS011;1894;51.038;13.692;2023-09-18T03:36:01;8.03;;;7.10;;
3757;SDS011;1894;51.038;13.692;2023-09-18T03:38:33;8.23;;;7.50;;
3757;SDS011;1894;51.038;13.692;2023-09-18T03:41:02;8.43;;;7.67;;
3757;SDS011;1894;51.038;13.692;2023-09-18T03:43:29;8.90;;;8.03;;
3757;SDS011;1894;51.038;13.692;2023-09-18T03:46:03;8.13;;;7.40;;
3757;SDS011;1894;51.038;13.692;2023-09-18T03:48:39;8.37;;;7.60;;
3757;SDS011;1894;51.038;13.692;2023-09-18T03:51:06;7.97;;;7.17;;
3757;SDS011;1894;51.038;13.692;2023-09-18T03:53:34;8.17;;;7.33;;
3757;SDS011;1894;51.038;13.692;2023-09-18T03:56:03;8.00;;;7.30;;
3757;SDS011;1894;51.038;13.692;2023-09-18T03:58:30;9.30;;;8.40;;
3757;SDS011;1894;51.038;13.692;2023-09-18T04:01:00;9.70;;;8.13;;
3757;SDS011;1894;51.038;13.692;2023-09-18T04:03:30;12.00;;;8.30;;
3757;SDS011;1894;51.038;13.692;2023-09-18T04:05:58;7.17;;;6.47;;
3757;SDS011;1894;51.038;13.692;2023-09-18T04:08:25;7.73;;;6.93;;
3757;SDS011;1894;51.038;13.692;2023-09-18T04:10:52;7.43;;;6.83;;
3757;SDS011;1894;51.038;13.692;2023-09-18T04:13:23;13.77;;;8.07;;
3757;SDS011;1894;51.038;13.692;2023-09-18T04:15:52;8.53;;;7.63;;
3757;SDS011;1894;51.038;13.692;2023-09-18T04:18:24;8.47;;;7.57;;
3757;SDS011;1894;51.038;13.692;2023-09-18T04:20:52;9.00;;;8.10;;
3757;SDS011;1894;51.038;13.692;2023-09-18T04:23:26;7.60;;;6.90;;
3757;SDS011;1894;51.038;13.692;2023-09-18T04:25:54;9.03;;;7.97;;
3757;SDS011;1894;51.038;13.692;2023-09-18T04:28:22;8.60;;;7.20;;
3757;SDS011;1894;51.038;13.692;2023-09-18T04:30:50;8.80;;;7.70;;
3757;SDS011;1894;51.038;13.692;2023-09-18T04:33:18;7.83;;;7.07;;
3757;SDS011;1894;51.038;13.692;2023-09-18T04:35:48;8.07;;;7.30;;
3757;SDS011;1894;51.038;13.692;2023-09-18T04:38:15;12.27;;;7.70;;
3757;SDS011;1894;51.038;13.692;2023-09-18T04:40:45;7.27;;;6.47;;
3757;SDS011;1894;51.038;13.692;2023-09-18T04:43:13;7.67;;;7.07;;
3757;SDS011;1894;51.038;13.692;2023-09-18T04:45:40;8.83;;;8.03;;
3757;SDS011;1894;51.038;13.692;2023-09-18T04:48:09;10.97;;;7.70;;
3757;SDS011;1894;51.038;13.692;2023-09-18T04:50:37;13.00;;;7.20;;
3757;SDS011;1894;51.038;13.692;2023-09-18T04:53:04;12.23;;;7.47;;
3757;SDS011;1894;51.038;13.692;2023-09-18T04:55:32;8.77;;;7.70;;
3757;SDS011;1894;51.038;13.692;2023-09-18T04:57:59;7.83;;;7.13;;
3757;SDS011;1894;51.038;13.692;2023-09-18T05:00:27;10.10;;;7.10;;
3757;SDS011;1894;51.038;13.692;2023-09-18T05:02:57;8.50;;;7.70;;
3757;SDS011;1894;51.038;13.692;2023-09-18T05:05:38;9.70;;;6.60;;
3757;SDS011;1894;51.038;13.692;2023-09-18T05:08:06;8.33;;;7.40;;
3757;SDS011;1894;51.038;13.692;2023-09-18T05:10:34;6.80;;;6.20;;
3757;SDS011;1894;51.038;13.692;2023-09-18T05:13:01;7.47;;;6.87;;
3757;SDS011;1894;51.038;13.692;2023-09-18T05:15:29;7.90;;;6.60;;
3757;SDS011;1894;51.038;13.692;2023-09-18T05:17:57;7.63;;;6.93;;
3757;SDS011;1894;51.038;13.692;2023-09-18T05:20:27;7.90;;;7.10;;
3757;SDS011;1894;51.038;13.692;2023-09-18T05:22:55;8.37;;;7.33;;
3757;SDS011;1894;51.038;13.692;2023-09-18T05:25:25;7.77;;;5.77;;
3757;SDS011;1894;51.038;13.692;2023-09-18T05:27:54;8.90;;;6.70;;
3757;SDS011;1894;51.038;13.692;2023-09-18T05:30:24;11.73;;;7.17;;
3757;SDS011;1894;51.038;13.692;2023-09-18T05:33:01;8.20;;;6.83;;
3757;SDS011;1894;51.038;13.692;2023-09-18T05:35:39;9.47;;;6.57;;
3757;SDS011;1894;51.038;13.692;2023-09-18T05:38:09;8.20;;;6.60;;
3757;SDS011;1894;51.038;13.692;2023-09-18T05:40:40;7.87;;;7.07;;
3757;SDS011;1894;51.038;13.692;2023-09-18T05:43:08;7.23;;;6.63;;
3757;SDS011;1894;51.038;13.692;2023-09-18T05:45:35;6.37;;;5.77;;
3757;SDS011;1894;51.038;13.692;2023-09-18T05:48:03;7.10;;;6.33;;
3757;SDS011;1894;51.038;13.692;2023-09-18T05:50:31;12.57;;;6.50;;
3757;SDS011;1894;51.038;13.692;2023-09-18T05:53:02;13.93;;;7.07;;
3757;SDS011;1894;51.038;13.692;2023-09-18T05:55:33;7.13;;;6.53;;
3757;SDS011;1894;51.038;13.692;2023-09-18T05:58:00;7.37;;;6.47;;
3757;SDS011;1894;51.038;13.692;2023-09-18T06:00:30;6.70;;;6.00;;
3757;SDS011;1894;51.038;13.692;2023-09-18T06:02:57;7.67;;;6.07;;
3757;SDS011;1894;51.038;13.692;2023-09-18T06:05:25;7.20;;;6.50;;
3757;SDS011;1894;51.038;13.692;2023-09-18T06:07:53;7.57;;;6.83;;
3757;SDS011;1894;51.038;13.692;2023-09-18T06:10:20;8.10;;;5.70;;
3757;SDS011;1894;51.038;13.692;2023-09-18T06:12:47;15.67;;;7.50;;
3757;SDS011;1894;51.038;13.692;2023-09-18T06:15:14;8.50;;;6.17;;
3757;SDS011;1894;51.038;13.692;2023-09-18T06:17:42;13.10;;;6.50;;
3757;SDS011;1894;51.038;13.692;2023-09-18T06:20:11;9.50;;;6.13;;
3757;SDS011;1894;51.038;13.692;2023-09-18T06:22:42;7.57;;;6.77;;
3757;SDS011;1894;51.038;13.692;2023-09-18T06:25:10;12.40;;;7.13;;
3757;SDS011;1894;51.038;13.692;2023-09-18T06:27:37;15.03;;;7.30;;
3757;SDS011;1894;51.038;13.692;2023-09-18T06:30:05;16.70;;;7.20;;
3757;SDS011;1894;51.038;13.692;2023-09-18T06:32:33;8.10;;;6.50;;
3757;SDS011;1894;51.038;13.692;2023-09-18T06:35:00;8.90;;;6.53;;
3757;SDS011;1894;51.038;13.692;2023-09-18T06:37:28;8.80;;;6.20;;
3757;SDS011;1894;51.038;13.692;2023-09-18T06:39:55;9.67;;;6.90;;
3757;SDS011;1894;51.038;13.692;2023-09-18T06:42:25;16.13;;;7.40;;
3757;SDS011;1894;51.038;13.692;2023-09-18T06:44:56;10.40;;;6.37;;
3757;SDS011;1894;51.038;13.692;2023-09-18T06:47:23;24.57;;;8.33;;
3757;SDS011;1894;51.038;13.692;2023-09-18T06:49:51;21.27;;;8.63;;
3757;SDS011;1894;51.038;13.692;2023-09-18T06:52:18;12.83;;;7.13;;
3757;SDS011;1894;51.038;13.692;2023-09-18T06:54:45;7.33;;;6.43;;
3757;SDS011;1894;51.038;13.692;2023-09-18T06:57:13;18.50;;;6.73;;
3757;SDS011;1894;51.038;13.692;2023-09-18T06:59:40;9.33;;;6.07;;
3757;SDS011;1894;51.038;13.692;2023-09-18T07:02:07;7.87;;;6.10;;
3757;SDS011;1894;51.038;13.692;2023-09-18T07:04:34;7.03;;;5.93;;
3757;SDS011;1894;51.038;13.692;2023-09-18T07:07:01;11.40;;;5.93;;
3757;SDS011;1894;51.038;13.692;2023-09-18T07:09:30;8.07;;;5.53;;
3757;SDS011;1894;51.038;13.692;2023-09-18T07:12:02;6.40;;;5.80;;
3757;SDS011;1894;51.038;13.692;2023-09-18T07:14:29;10.60;;;6.10;;
3757;SDS011;1894;51.038;13.692;2023-09-18T07:16:57;11.43;;;6.40;;
3757;SDS011;1894;51.038;13.692;2023-09-18T07:19:25;6.50;;;5.90;;
3757;SDS011;1894;51.038;13.692;2023-09-18T07:21:52;8.93;;;5.87;;
3757;SDS011;1894;51.038;13.692;2023-09-18T07:24:20;5.97;;;5.47;;
3757;SDS011;1894;51.038;13.692;2023-09-18T07:26:47;9.23;;;5.63;;
3757;SDS011;1894;51.038;13.692;2023-09-18T07:29:15;9.20;;;5.93;;
3757;SDS011;1894;51.038;13.692;2023-09-18T07:31:43;7.60;;;6.40;;
3757;SDS011;1894;51.038;13.692;2023-09-18T07:34:11;6.17;;;5.67;;
3757;SDS011;1894;51.038;13.692;2023-09-18T07:36:40;6.17;;;5.20;;
3757;SDS011;1894;51.038;13.692;2023-09-18T07:39:07;8.10;;;4.70;;
3757;SDS011;1894;51.038;13.692;2023-09-18T07:41:34;10.00;;;5.70;;
3757;SDS011;1894;51.038;13.692;2023-09-18T07:44:02;8.60;;;5.97;;
3757;SDS011;1894;51.038;13.692;2023-09-18T07:46:29;6.50;;;5.33;;
3757;SDS011;1894;51.038;13.692;2023-09-18T07:48:56;12.30;;;5.80;;
3757;SDS011;1894;51.038;13.692;2023-09-18T07:51:23;8.57;;;5.33;;
3757;SDS011;1894;51.038;13.692;2023-09-18T07:53:51;5.07;;;4.67;;
3757;SDS011;1894;51.038;13.692;2023-09-18T07:56:18;6.00;;;4.80;;
3757;SDS011;1894;51.038;13.692;2023-09-18T07:58:46;7.40;;;6.03;;
3757;SDS011;1894;51.038;13.692;2023-09-18T08:01:13;16.03;;;5.90;;
3757;SDS011;1894;51.038;13.692;2023-09-18T08:03:43;6.70;;;4.67;;
3757;SDS011;1894;51.038;13.692;2023-09-18T08:06:10;7.23;;;6.07;;
3757;SDS011;1894;51.038;13.692;2023-09-18T08:08:38;8.70;;;5.50;;
3757;SDS011;1894;51.038;13.692;2023-09-18T08:11:06;6.77;;;4.80;;
3757;SDS011;1894;51.038;13.692;2023-09-18T08:13:35;9.53;;;5.33;;
3757;SDS011;1894;51.038;13.692;2023-09-18T08:16:05;11.03;;;6.30;;
3757;SDS011;1894;51.038;13.692;2023-09-18T08:18:33;12.00;;;5.57;;
3757;SDS011;1894;51.038;13.692;2023-09-18T08:21:01;9.80;;;6.47;;
3757;SDS011;1894;51.038;13.692;2023-09-18T08:23:29;11.43;;;5.53;;
3757;SDS011;1894;51.038;13.692;2023-09-18T08:25:56;5.47;;;4.97;;
3757;SDS011;1894;51.038;13.692;2023-09-18T08:28:24;8.87;;;4.63;;
3757;SDS011;1894;51.038;13.692;2023-09-18T08:30:52;5.97;;;4.50;;
3757;SDS011;1894;51.038;13.692;2023-09-18T08:33:20;10.90;;;4.60;;
3757;SDS011;1894;51.038;13.692;2023-09-18T08:35:50;5.53;;;4.80;;
3757;SDS011;1894;51.038;13.692;2023-09-18T08:38:23;4.83;;;3.50;;
3757;SDS011;1894;51.038;13.692;2023-09-18T08:40:56;5.93;;;4.23;;
3757;SDS011;1894;51.038;13.692;2023-09-18T08:43:24;3.63;;;3.30;;
3757;SDS011;1894;51.038;13.692;2023-09-18T08:45:53;4.43;;;4.03;;
3757;SDS011;1894;51.038;13.692;2023-09-18T08:48:23;11.57;;;4.80;;
3757;SDS011;1894;51.038;13.692;2023-09-18T08:50:50;8.13;;;4.53;;
3757;SDS011;1894;51.038;13.692;2023-09-18T08:53:18;20.17;;;4.80;;
3757;SDS011;1894;51.038;13.692;2023-09-18T08:55:48;17.20;;;4.30;;
3757;SDS011;1894;51.038;13.692;2023-09-18T08:58:16;10.00;;;4.60;;
3757;SDS011;1894;51.038;13.692;2023-09-18T09:00:46;4.10;;;3.80;;
3757;SDS011;1894;51.038;13.692;2023-09-18T09:03:13;7.93;;;3.73;;
3757;SDS011;1894;51.038;13.692;2023-09-18T09:05:41;9.20;;;3.80;;
3757;SDS011;1894;51.038;13.692;2023-09-18T09:08:08;6.00;;;4.10;;
3757;SDS011;1894;51.038;13.692;2023-09-18T09:10:35;5.70;;;4.13;;
3757;SDS011;1894;51.038;13.692;2023-09-18T09:13:03;3.70;;;3.40;;
3757;SDS011;1894;51.038;13.692;2023-09-18T09:15:42;3.07;;;2.87;;
3757;SDS011;1894;51.038;13.692;2023-09-18T09:18:16;6.40;;;3.63;;
3757;SDS011;1894;51.038;13.692;2023-09-18T09:20:53;45.77;;;5.43;;
3757;SDS011;1894;51.038;13.692;2023-09-18T09:24:00;4.50;;;2.90;;
3757;SDS011;1894;51.038;13.692;2023-09-18T09:27:10;8.17;;;3.27;;
3757;SDS011;1894;51.038;13.692;2023-09-18T09:30:39;3.50;;;3.03;;
3757;SDS011;1894;51.038;13.692;2023-09-18T09:37:39;10.97;;;3.37;;
3757;SDS011;1894;51.038;13.692;2023-09-18T09:40:19;3.60;;;3.30;;
3757;SDS011;1894;51.038;13.692;2023-09-18T09:42:57;5.83;;;2.80;;
3757;SDS011;1894;51.038;13.692;2023-09-18T09:45:28;11.57;;;4.63;;
3757;SDS011;1894;51.038;13.692;2023-09-18T09:48:06;7.20;;;3.90;;
3757;SDS011;1894;51.038;13.692;2023-09-18T09:55:02;3.07;;;2.80;;
3757;SDS011;1894;51.038;13.692;2023-09-18T09:58:05;4.40;;;3.67;;
3757;SDS011;1894;51.038;13.692;2023-09-18T10:05:53;3.90;;;2.83;;
3757;SDS011;1894;51.038;13.692;2023-09-18T10:09:28;5.20;;;3.37;;
3757;SDS011;1894;51.038;13.692;2023-09-18T10:12:13;9.80;;;4.00;;
3757;SDS011;1894;51.038;13.692;2023-09-18T10:14:58;7.63;;;3.93;;
3757;SDS011;1894;51.038;13.692;2023-09-18T10:17:33;7.13;;;3.43;;
3757;SDS011;1894;51.038;13.692;2023-09-18T10:20:07;6.10;;;3.00;;
3757;SDS011;1894;51.038;13.692;2023-09-18T10:22:41;7.40;;;3.20;;
3757;SDS011;1894;51.038;13.692;2023-09-18T10:25:14;6.40;;;3.60;;
3757;SDS011;1894;51.038;13.692;2023-09-18T10:27:46;3.47;;;3.17;;
3757;SDS011;1894;51.038;13.692;2023-09-18T10:30:22;6.53;;;3.63;;
3757;SDS011;1894;51.038;13.692;2023-09-18T10:32:53;4.07;;;3.10;;
3757;SDS011;1894;51.038;13.692;2023-09-18T10:35:21;7.53;;;4.30;;
3757;SDS011;1894;51.038;13.692;2023-09-18T10:37:49;3.57;;;2.83;;
3757;SDS011;1894;51.038;13.692;2023-09-18T10:40:18;4.80;;;3.43;;
3757;SDS011;1894;51.038;13.692;2023-09-18T10:42:47;8.47;;;3.07;;
3757;SDS011;1894;51.038;13.692;2023-09-18T10:45:17;2.77;;;2.57;;
3757;SDS011;1894;51.038;13.692;2023-09-18T10:47:45;10.83;;;5.00;;
3757;SDS011;1894;51.038;13.692;2023-09-18T10:50:24;4.77;;;2.60;;
3757;SDS011;1894;51.038;13.692;2023-09-18T10:52:53;3.83;;;2.03;;
3757;SDS011;1894;51.038;13.692;2023-09-18T10:55:26;2.30;;;2.00;;
3757;SDS011;1894;51.038;13.692;2023-09-18T11:07:33;5.70;;;2.50;;
3757;SDS011;1894;51.038;13.692;2023-09-18T11:10:00;2.87;;;2.67;;
3757;SDS011;1894;51.038;13.692;2023-09-18T11:12:55;4.70;;;2.53;;
3757;SDS011;1894;51.038;13.692;2023-09-18T11:15:34;5.90;;;2.70;;
3757;SDS011;1894;51.038;13.692;2023-09-18T11:18:02;3.60;;;2.70;;
3757;SDS011;1894;51.038;13.692;2023-09-18T11:20:35;11.20;;;4.60;;
3757;SDS011;1894;51.038;13.692;2023-09-18T11:23:16;3.37;;;2.43;;
3757;SDS011;1894;51.038;13.692;2023-09-18T11:25:47;3.67;;;2.30;;
3757;SDS011;1894;51.038;13.692;2023-09-18T11:28:24;3.23;;;2.50;;
3757;SDS011;1894;51.038;13.692;2023-09-18T11:31:00;3.10;;;2.80;;
3757;SDS011;1894;51.038;13.692;2023-09-18T11:36:08;3.40;;;2.40;;
3757;SDS011;1894;51.038;13.692;2023-09-18T11:38:54;8.60;;;3.23;;
3757;SDS011;1894;51.038;13.692;2023-09-18T11:41:32;5.90;;;3.13;;
3757;SDS011;1894;51.038;13.692;2023-09-18T11:46:49;4.27;;;2.73;;
3757;SDS011;1894;51.038;13.692;2023-09-18T11:49:22;3.20;;;2.80;;
3757;SDS011;1894;51.038;13.692;2023-09-18T11:51:53;2.73;;;2.50;;
3757;SDS011;1894;51.038;13.692;2023-09-18T11:54:22;4.10;;;2.53;;
3757;SDS011;1894;51.038;13.692;2023-09-18T11:56:49;4.63;;;2.70;;
3757;SDS011;1894;51.038;13.692;2023-09-18T11:59:17;4.80;;;2.90;;
3757;SDS011;1894;51.038;13.692;2023-09-18T12:01:53;2.00;;;1.80;;
3757;SDS011;1894;51.038;13.692;2023-09-18T12:04:29;2.63;;;2.40;;
3757;SDS011;1894;51.038;13.692;2023-09-18T12:06:58;2.50;;;2.30;;
3757;SDS011;1894;51.038;13.692;2023-09-18T12:09:27;1.87;;;1.77;;
3757;SDS011;1894;51.038;13.692;2023-09-18T12:11:54;1.97;;;1.87;;
3757;SDS011;1894;51.038;13.692;2023-09-18T12:14:23;2.03;;;1.83;;
3757;SDS011;1894;51.038;13.692;2023-09-18T12:16:51;1.60;;;1.50;;
3757;SDS011;1894;51.038;13.692;2023-09-18T12:19:18;2.30;;;1.47;;
3757;SDS011;1894;51.038;13.692;2023-09-18T12:21:46;2.97;;;1.90;;
3757;SDS011;1894;51.038;13.692;2023-09-18T12:24:17;1.80;;;1.40;;
3757;SDS011;1894;51.038;13.692;2023-09-18T12:26:50;1.73;;;1.63;;
3757;SDS011;1894;51.038;13.692;2023-09-18T12:29:30;2.97;;;1.77;;
3757;SDS011;1894;51.038;13.692;2023-09-18T12:31:59;14.23;;;2.40;;
3757;SDS011;1894;51.038;13.692;2023-09-18T12:34:29;3.03;;;1.90;;
3757;SDS011;1894;51.038;13.692;2023-09-18T12:36:56;2.43;;;2.30;;
3757;SDS011;1894;51.038;13.692;2023-09-18T12:39:25;3.73;;;2.17;;
3757;SDS011;1894;51.038;13.692;2023-09-18T12:41:59;6.47;;;2.53;;
3757;SDS011;1894;51.038;13.692;2023-09-18T12:44:27;3.60;;;2.00;;
3757;SDS011;1894;51.038;13.692;2023-09-18T12:46:55;3.03;;;2.10;;
3757;SDS011;1894;51.038;13.692;2023-09-18T12:49:23;2.33;;;2.13;;
3757;SDS011;1894;51.038;13.692;2023-09-18T12:51:55;2.63;;;2.20;;
3757;SDS011;1894;51.038;13.692;2023-09-18T12:54:37;2.50;;;2.27;;
3757;SDS011;1894;51.038;13.692;2023-09-18T12:57:04;5.70;;;3.63;;
3757;SDS011;1894;51.038;13.692;2023-09-18T12:59:34;3.67;;;2.50;;
3757;SDS011;1894;51.038;13.692;2023-09-18T13:02:05;2.47;;;2.27;;
3757;SDS011;1894;51.038;13.692;2023-09-18T13:04:34;2.37;;;2.17;;
3757;SDS011;1894;51.038;13.692;2023-09-18T13:07:07;3.30;;;2.20;;
3757;SDS011;1894;51.038;13.692;2023-09-18T13:09:37;5.50;;;3.27;;
3757;SDS011;1894;51.038;13.692;2023-09-18T13:12:06;3.27;;;2.33;;
3757;SDS011;1894;51.038;13.692;2023-09-18T13:17:43;4.90;;;2.57;;
3757;SDS011;1894;51.038;13.692;2023-09-18T13:20:46;5.30;;;3.17;;
3757;SDS011;1894;51.038;13.692;2023-09-18T13:23:07;4.27;;;2.53;;
3757;SDS011;1894;51.038;13.692;2023-09-18T13:25:39;2.70;;;2.47;;
3757;SDS011;1894;51.038;13.692;2023-09-18T13:28:11;2.67;;;2.47;;
3757;SDS011;1894;51.038;13.692;2023-09-18T13:30:40;3.60;;;3.23;;
3757;SDS011;1894;51.038;13.692;2023-09-18T13:33:13;5.83;;;3.03;;
3757;SDS011;1894;51.038;13.692;2023-09-18T13:35:44;5.97;;;3.13;;
3757;SDS011;1894;51.038;13.692;2023-09-18T13:38:12;6.43;;;2.90;;
3757;SDS011;1894;51.038;13.692;2023-09-18T13:40:42;4.40;;;2.50;;
3757;SDS011;1894;51.038;13.692;2023-09-18T13:43:14;5.53;;;2.97;;
3757;SDS011;1894;51.038;13.692;2023-09-18T13:45:41;3.53;;;3.23;;
3757;SDS011;1894;51.038;13.692;2023-09-18T13:48:09;5.77;;;3.60;;
3757;SDS011;1894;51.038;13.692;2023-09-18T13:50:38;8.40;;;3.50;;
3757;SDS011;1894;51.038;13.692;2023-09-18T13:53:05;3.10;;;2.90;;
3757;SDS011;1894;51.038;13.692;2023-09-18T13:55:33;6.33;;;3.87;;
3757;SDS011;1894;51.038;13.692;2023-09-18T13:58:01;7.73;;;3.20;;
3757;SDS011;1894;51.038;13.692;2023-09-18T14:00:30;10.43;;;3.20;;
3757;SDS011;1894;51.038;13.692;2023-09-18T14:02:58;11.97;;;3.23;;
3757;SDS011;1894;51.038;13.692;2023-09-18T14:05:26;10.57;;;2.50;;
3757;SDS011;1894;51.038;13.692;2023-09-18T14:07:55;19.63;;;2.77;;
3757;SDS011;1894;51.038;13.692;2023-09-18T14:10:27;9.47;;;3.10;;
3757;SDS011;1894;51.038;13.692;2023-09-18T14:12:54;11.87;;;2.83;;
3757;SDS011;1894;51.038;13.692;2023-09-18T14:15:21;13.40;;;4.20;;
3757;SDS011;1894;51.038;13.692;2023-09-18T14:17:49;8.87;;;3.27;;
3757;SDS011;1894;51.038;13.692;2023-09-18T14:20:16;16.63;;;3.80;;
3757;SDS011;1894;51.038;13.692;2023-09-18T14:22:46;13.67;;;2.67;;
3757;SDS011;1894;51.038;13.692;2023-09-18T14:25:16;12.73;;;2.40;;
3757;SDS011;1894;51.038;13.692;2023-09-18T14:27:47;9.03;;;2.93;;
3757;SDS011;1894;51.038;13.692;2023-09-18T14:30:14;13.17;;;3.20;;
3757;SDS011;1894;51.038;13.692;2023-09-18T14:32:42;17.33;;;3.50;;
3757;SDS011;1894;51.038;13.692;2023-09-18T14:35:09;17.20;;;3.60;;
3757;SDS011;1894;51.038;13.692;2023-09-18T14:37:37;13.20;;;2.70;;
3757;SDS011;1894;51.038;13.692;2023-09-18T14:40:04;20.60;;;4.43;;
3757;SDS011;1894;51.038;13.692;2023-09-18T14:42:33;10.53;;;3.77;;
3757;SDS011;1894;51.038;13.692;2023-09-18T14:45:02;20.33;;;3.03;;
3757;SDS011;1894;51.038;13.692;2023-09-18T14:47:30;13.10;;;2.80;;
3757;SDS011;1894;51.038;13.692;2023-09-18T14:49:57;9.33;;;2.23;;
3757;SDS011;1894;51.038;13.692;2023-09-18T14:52:25;16.67;;;3.60;;
3757;SDS011;1894;51.038;13.692;2023-09-18T14:54:52;12.00;;;3.17;;
3757;SDS011;1894;51.038;13.692;2023-09-18T14:57:20;6.17;;;2.40;;
3757;SDS011;1894;51.038;13.692;2023-09-18T14:59:47;10.00;;;2.57;;
3757;SDS011;1894;51.038;13.692;2023-09-18T15:02:15;9.87;;;2.47;;
3757;SDS011;1894;51.038;13.692;2023-09-18T15:04:44;6.93;;;3.10;;
3757;SDS011;1894;51.038;13.692;2023-09-18T15:07:12;9.60;;;3.10;;
3757;SDS011;1894;51.038;13.692;2023-09-18T15:09:40;8.50;;;2.70;;
3757;SDS011;1894;51.038;13.692;2023-09-18T15:12:07;8.07;;;2.87;;
3757;SDS011;1894;51.038;13.692;2023-09-18T15:14:37;9.57;;;2.60;;
3757;SDS011;1894;51.038;13.692;2023-09-18T15:17:05;5.00;;;1.90;;
3757;SDS011;1894;51.038;13.692;2023-09-18T15:19:34;5.20;;;2.07;;
3757;SDS011;1894;51.038;13.692;2023-09-18T15:22:02;9.10;;;2.10;;
3757;SDS011;1894;51.038;13.692;2023-09-18T15:24:29;7.20;;;1.10;;
3757;SDS011;1894;51.038;13.692;2023-09-18T15:26:57;9.20;;;2.10;;
3757;SDS011;1894;51.038;13.692;2023-09-18T15:29:24;9.83;;;1.30;;
3757;SDS011;1894;51.038;13.692;2023-09-18T15:32:00;4.50;;;1.00;;
3757;SDS011;1894;51.038;13.692;2023-09-18T15:34:32;4.57;;;1.13;;
3757;SDS011;1894;51.038;13.692;2023-09-18T15:36:59;3.77;;;1.07;;
3757;SDS011;1894;51.038;13.692;2023-09-18T15:39:30;2.80;;;1.10;;
3757;SDS011;1894;51.038;13.692;2023-09-18T15:42:02;5.13;;;1.30;;
3757;SDS011;1894;51.038;13.692;2023-09-18T15:44:29;3.03;;;0.90;;
3757;SDS011;1894;51.038;13.692;2023-09-18T15:46:57;9.50;;;1.20;;
3757;SDS011;1894;51.038;13.692;2023-09-18T15:49:24;2.50;;;0.80;;